Time;durP1;ratioP1;P1;durP2;ratioP2;P2;SDS_P1;SDS_P2;PMS_P1;PMS_P2;Temp;Humidity;BMP_temperature;BMP_pressure;BME280_temperature;BME280_humidity;BME280_pressure;Samples;Min_cycle;Max_cycle;Signal;HPM_P1;HPM_P2
2024/03/26 00:00:52;;;;;;;;;;;;;;;2.55;71.72;99281.68;128348;1284;106861;-81
2024/03/26 00:04:16;;;;;;;;;;;;;;;2.52;71.68;99287.38;128080;1284;110491;-81
2024/03/26 00:07:19;;;;;;;;;;;;;;;2.51;71.56;99286.24;128101;1281;108869;-82
2024/03/26 00:10:23;;;;;;;;;;;;;;;2.47;71.55;99291.52;128036;1284;108823;-81
2024/03/26 00:13:27;;;;;;;;;;;;;;;2.39;71.54;99294.80;128076;1284;107809;-81
2024/03/26 00:16:31;;;;;;;;;;;;;;;2.33;71.55;99298.58;128053;1283;106508;-81
2024/03/26 00:19:35;;;;;;;;;;;;;;;2.29;71.57;99302.20;128079;1284;107653;-82
2024/03/26 00:22:38;;;;;;;;;;;;;;;2.27;71.64;99307.30;128083;1284;108679;-81
2024/03/26 00:25:42;;;;;;;;;;;;;;;2.25;71.78;99305.21;128000;1283;106919;-83
2024/03/26 00:28:46;;;;;;;;;;;;;;;2.24;71.79;99304.23;127945;1283;108632;-81
2024/03/26 00:31:50;;;;;;;;;;;;;;;2.24;71.47;99307.20;127966;1281;109144;-80
2024/03/26 00:34:54;;;;;;;;;;;;;;;2.21;71.58;99317.46;127996;1283;107550;-81
2024/03/26 00:37:57;;;;;;;;;;;;;;;2.18;71.69;99330.33;128057;1283;108951;-82
2024/03/26 00:41:01;;;;;;;;;;;;;;;2.17;71.81;99331.29;127960;1281;108653;-82
2024/03/26 00:44:05;;;;;;;;;;;;;;;2.16;71.63;99334.17;128034;1284;108762;-81
2024/03/26 00:47:09;;;;;;;;;;;;;;;2.12;71.62;99335.90;128190;1280;108427;-82
2024/03/26 00:50:13;;;;;;;;;;;;;;;2.08;71.59;99332.67;128145;1284;108779;-81
2024/03/26 00:53:17;;;;;;;;;;;;;;;2.06;71.72;99342.17;128153;1283;109157;-81
2024/03/26 00:56:21;;;;;;;;;;;;;;;2.06;71.75;99339.90;127981;1281;108670;-81
2024/03/26 00:59:24;;;;;;;;;;;;;;;2.03;71.67;99341.31;128286;1283;107971;-81
2024/03/26 01:02:28;;;;;;;;;;;;;;;1.98;71.68;99339.77;128158;1284;108827;-82
2024/03/26 01:05:32;;;;;;;;;;;;;;;1.96;71.97;99342.19;128174;1283;107900;-81
2024/03/26 01:08:36;;;;;;;;;;;;;;;1.96;71.85;99346.95;128266;1284;107785;-81
2024/03/26 01:11:39;;;;;;;;;;;;;;;1.95;71.86;99347.56;128110;1283;108558;-81
2024/03/26 01:14:43;;;;;;;;;;;;;;;1.92;71.84;99347.80;128293;1284;107554;-82
2024/03/26 01:17:47;;;;;;;;;;;;;;;1.88;71.86;99348.23;128346;1284;107564;-81
2024/03/26 01:20:51;;;;;;;;;;;;;;;1.87;71.89;99344.54;128227;1280;108053;-82
2024/03/26 01:23:55;;;;;;;;;;;;;;;1.83;71.85;99352.88;128325;1281;108804;-82
2024/03/26 01:26:58;;;;;;;;;;;;;;;1.76;71.90;99352.88;128429;1282;107648;-81
2024/03/26 01:30:02;;;;;;;;;;;;;;;1.74;72.10;99348.64;128094;1281;106680;-82
2024/03/26 01:33:06;;;;;;;;;;;;;;;1.72;71.95;99351.29;128034;1281;107831;-82
2024/03/26 01:36:10;;;;;;;;;;;;;;;1.70;71.93;99356.54;127989;1284;108701;-82
2024/03/26 01:39:14;;;;;;;;;;;;;;;1.67;72.00;99356.39;127997;1281;106378;-82
2024/03/26 01:42:18;;;;;;;;;;;;;;;1.70;72.11;99357.58;128015;1282;107835;-81
2024/03/26 01:45:21;;;;;;;;;;;;;;;1.75;72.05;99357.70;127953;1292;107060;-82
2024/03/26 01:48:26;;;;;;;;;;;;;;;1.81;72.03;99356.92;128236;1283;108740;-82
2024/03/26 01:51:30;;;;;;;;;;;;;;;1.86;71.78;99358.77;127931;1280;107703;-82
2024/03/26 01:54:33;;;;;;;;;;;;;;;1.93;71.83;99355.27;127960;1283;107083;-82
2024/03/26 01:57:38;;;;;;;;;;;;;;;2.01;71.62;99354.65;128089;1284;107868;-82
2024/03/26 02:00:42;;;;;;;;;;;;;;;2.07;71.54;99353.83;128076;1282;108773;-81
2024/03/26 02:03:45;;;;;;;;;;;;;;;2.11;71.22;99352.66;128122;1281;106858;-80
2024/03/26 02:06:49;;;;;;;;;;;;;;;2.11;71.33;99361.04;128097;1283;108058;-81
2024/03/26 02:09:53;;;;;;;;;;;;;;;2.13;71.38;99360.73;128197;1284;107616;-81
2024/03/26 02:12:57;;;;;;;;;;;;;;;2.17;71.32;99363.77;128153;1281;107196;-84
2024/03/26 02:16:01;;;;;;;;;;;;;;;2.17;71.21;99364.98;128133;1284;108807;-81
2024/03/26 02:19:05;;;;;;;;;;;;;;;2.12;71.15;99362.52;128097;1283;107482;-82
2024/03/26 02:22:09;;;;;;;;;;;;;;;2.05;71.16;99365.23;128007;1293;108909;-81
2024/03/26 02:25:12;;;;;;;;;;;;;;;1.98;71.14;99365.79;128016;1281;109039;-82
2024/03/26 02:28:16;;;;;;;;;;;;;;;1.89;71.11;99370.10;127993;1283;107500;-81
2024/03/26 02:31:20;;;;;;;;;;;;;;;1.83;71.14;99370.23;128042;1283;108816;-82
2024/03/26 02:34:24;;;;;;;;;;;;;;;1.79;71.38;99372.50;127938;1280;148087;-82
2024/03/26 02:37:28;;;;;;;;;;;;;;;1.74;71.37;99371.10;128132;1281;107225;-82
2024/03/26 02:40:32;;;;;;;;;;;;;;;1.73;71.44;99375.08;127997;1284;106920;-82
2024/03/26 02:43:36;;;;;;;;;;;;;;;1.66;71.26;99373.98;127961;1284;108670;-81
2024/03/26 02:46:40;;;;;;;;;;;;;;;1.62;71.34;99377.30;128025;1282;106946;-81
2024/03/26 02:49:44;;;;;;;;;;;;;;;1.58;71.25;99381.48;128224;1280;107906;-82
2024/03/26 02:52:47;;;;;;;;;;;;;;;1.50;71.28;99385.06;128020;1281;106853;-81
2024/03/26 02:55:51;;;;;;;;;;;;;;;1.43;71.22;99387.30;128103;1282;109330;-82
2024/03/26 02:58:55;;;;;;;;;;;;;;;1.39;71.34;99391.50;128085;1283;108736;-83
2024/03/26 03:02:01;;;;;;;;;;;;;;;1.33;71.38;99395.48;128074;1280;106990;-81
2024/03/26 03:05:06;;;;;;;;;;;;;;;1.30;71.58;99397.07;128101;1283;107156;-81
2024/03/26 03:08:10;;;;;;;;;;;;;;;1.29;71.42;99395.22;128059;1283;108761;-81
2024/03/26 03:11:14;;;;;;;;;;;;;;;1.26;71.48;99396.65;127974;1282;107679;-81
2024/03/26 03:14:18;;;;;;;;;;;;;;;1.25;71.53;99390.46;127998;1284;107696;-81
2024/03/26 03:17:22;;;;;;;;;;;;;;;1.22;71.59;99394.00;127974;1284;106995;-80
2024/03/26 03:20:26;;;;;;;;;;;;;;;1.18;71.43;99403.58;127986;1284;108782;-81
2024/03/26 03:23:29;;;;;;;;;;;;;;;1.11;71.51;99405.65;128015;1282;107554;-81
2024/03/26 03:26:33;;;;;;;;;;;;;;;1.09;71.63;99408.09;128055;1284;106714;-81
2024/03/26 03:29:37;;;;;;;;;;;;;;;1.09;71.63;99408.46;128355;1280;108093;-84
2024/03/26 03:32:41;;;;;;;;;;;;;;;1.07;71.60;99413.14;127986;1281;107810;-84
2024/03/26 03:35:45;;;;;;;;;;;;;;;1.06;71.67;99412.15;128101;1283;108636;-83
2024/03/26 03:38:48;;;;;;;;;;;;;;;1.06;71.79;99415.52;127984;1283;106241;-82
2024/03/26 03:41:52;;;;;;;;;;;;;;;1.00;71.80;99419.77;128115;1281;106957;-84
2024/03/26 03:44:56;;;;;;;;;;;;;;;0.95;71.80;99421.16;128361;1281;108728;-81
2024/03/26 03:48:00;;;;;;;;;;;;;;;0.92;71.66;99422.81;128586;1284;106885;-81
2024/03/26 03:51:04;;;;;;;;;;;;;;;0.90;71.85;99427.86;128711;1284;107735;-81
2024/03/26 03:54:08;;;;;;;;;;;;;;;0.91;71.90;99428.48;128256;1282;107837;-81
2024/03/26 03:57:11;;;;;;;;;;;;;;;0.91;72.31;99430.05;128119;1280;107446;-81
2024/03/26 04:00:16;;;;;;;;;;;;;;;0.96;72.67;99429.55;128466;1284;107195;-80
2024/03/26 04:03:19;;;;;;;;;;;;;;;1.01;72.86;99429.66;128302;1280;108505;-80
2024/03/26 04:06:24;;;;;;;;;;;;;;;1.11;73.19;99426.70;128013;1284;107073;-80
2024/03/26 04:09:27;;;;;;;;;;;;;;;1.24;73.49;99434.15;128113;1288;107111;-81
2024/03/26 04:12:31;;;;;;;;;;;;;;;1.34;73.81;99434.80;127964;1280;108135;-80
2024/03/26 04:15:40;;;;;;;;;;;;;;;1.44;73.87;99436.17;127967;1284;106838;-80
2024/03/26 04:18:44;;;;;;;;;;;;;;;1.51;74.25;99441.73;128024;1297;107203;-80
2024/03/26 04:21:48;;;;;;;;;;;;;;;1.60;74.66;99441.95;127995;1284;106257;-80
2024/03/26 04:24:51;;;;;;;;;;;;;;;1.69;74.92;99440.05;128004;1283;108349;-80
2024/03/26 04:27:55;;;;;;;;;;;;;;;1.78;74.93;99436.92;128101;1281;108814;-81
2024/03/26 04:30:59;;;;;;;;;;;;;;;1.86;75.18;99437.55;128021;1281;108937;-81
2024/03/26 04:34:03;;;;;;;;;;;;;;;1.88;75.17;99443.46;128032;1281;107731;-81
2024/03/26 04:37:07;;;;;;;;;;;;;;;1.92;75.47;99440.36;128113;1283;108803;-81
2024/03/26 04:40:12;;;;;;;;;;;;;;;2.00;75.57;99442.11;128075;1281;108000;-80
2024/03/26 04:43:16;;;;;;;;;;;;;;;2.07;75.67;99441.89;128002;1282;106800;-80
2024/03/26 04:46:20;;;;;;;;;;;;;;;2.14;75.94;99442.05;128060;1287;107893;-81
2024/03/26 04:49:23;;;;;;;;;;;;;;;2.24;75.98;99437.95;127952;1286;107803;-81
2024/03/26 04:52:27;;;;;;;;;;;;;;;2.37;76.22;99431.15;127987;1283;106202;-81
2024/03/26 04:55:31;;;;;;;;;;;;;;;2.53;76.25;99428.80;128079;1283;107693;-81
2024/03/26 04:58:35;;;;;;;;;;;;;;;2.69;76.29;99425.74;128020;1283;107980;-80
2024/03/26 05:01:38;;;;;;;;;;;;;;;2.83;76.21;99427.48;128092;1284;107264;-81
2024/03/26 05:04:42;;;;;;;;;;;;;;;2.98;76.01;99425.89;127976;1284;108627;-82
2024/03/26 05:07:46;;;;;;;;;;;;;;;3.14;76.13;99426.20;127986;1280;107637;-81
2024/03/26 05:10:50;;;;;;;;;;;;;;;3.26;76.07;99433.27;127974;1284;107028;-81
2024/03/26 05:13:53;;;;;;;;;;;;;;;3.37;76.05;99439.39;128054;1283;107794;-81
2024/03/26 05:16:57;;;;;;;;;;;;;;;3.48;75.98;99438.13;128185;1283;108825;-81
2024/03/26 05:20:01;;;;;;;;;;;;;;;3.57;76.10;99442.36;128059;1281;106449;-81
2024/03/26 05:23:05;;;;;;;;;;;;;;;3.60;76.00;99445.91;128064;1284;106019;-81
2024/03/26 05:26:09;;;;;;;;;;;;;;;3.63;76.04;99452.34;128068;1286;107696;-80
2024/03/26 05:29:12;;;;;;;;;;;;;;;3.66;75.97;99450.15;128058;1281;108778;-80
2024/03/26 05:32:16;;;;;;;;;;;;;;;3.67;76.31;99450.61;128132;1284;106630;-81
2024/03/26 05:35:20;;;;;;;;;;;;;;;3.65;76.18;99455.52;128085;1287;108805;-81
2024/03/26 05:38:24;;;;;;;;;;;;;;;3.63;76.20;99455.52;128038;1283;107854;-82
2024/03/26 05:41:28;;;;;;;;;;;;;;;3.63;76.27;99455.88;128439;1283;107401;-83
2024/03/26 05:44:31;;;;;;;;;;;;;;;3.64;76.30;99456.86;128482;1281;108815;-83
2024/03/26 05:47:35;;;;;;;;;;;;;;;3.66;76.58;99458.61;128320;1285;105990;-82
2024/03/26 05:50:39;;;;;;;;;;;;;;;3.67;76.62;99461.02;128893;1282;108536;-83
2024/03/26 05:53:43;;;;;;;;;;;;;;;3.67;76.65;99465.39;128286;1284;107731;-83
2024/03/26 05:56:47;;;;;;;;;;;;;;;3.67;76.80;99463.15;127924;1280;105901;-83
2024/03/26 05:59:50;;;;;;;;;;;;;;;3.74;76.84;99465.21;128199;1294;107829;-83
2024/03/26 06:02:55;;;;;;;;;;;;;;;3.82;77.01;99475.96;128099;1284;107854;-83
2024/03/26 06:05:58;;;;;;;;;;;;;;;3.89;76.94;99480.23;127910;1284;107458;-82
2024/03/26 06:09:02;;;;;;;;;;;;;;;3.95;76.95;99483.97;127950;1283;108850;-83
2024/03/26 06:12:06;;;;;;;;;;;;;;;3.99;76.74;99483.64;128012;1295;108488;-82
2024/03/26 06:15:10;;;;;;;;;;;;;;;4.04;76.99;99482.73;127811;1283;107824;-82
2024/03/26 06:18:14;;;;;;;;;;;;;;;4.10;77.07;99487.48;127882;1283;108913;-83
2024/03/26 06:21:18;;;;;;;;;;;;;;;4.17;77.26;99486.02;127902;1293;106702;-83
2024/03/26 06:24:22;;;;;;;;;;;;;;;4.20;77.34;99487.15;127835;1284;108802;-83
2024/03/26 06:27:26;;;;;;;;;;;;;;;4.28;77.44;99489.64;127939;1280;107577;-82
2024/03/26 06:30:30;;;;;;;;;;;;;;;4.35;77.43;99488.88;127923;1295;106959;-83
2024/03/26 06:33:34;;;;;;;;;;;;;;;4.42;77.72;99497.27;127796;1284;107287;-82
2024/03/26 06:36:38;;;;;;;;;;;;;;;4.47;77.68;99500.89;127912;1286;107486;-82
2024/03/26 06:39:42;;;;;;;;;;;;;;;4.53;78.02;99498.39;127878;1284;107431;-82
2024/03/26 06:42:45;;;;;;;;;;;;;;;4.62;77.92;99503.43;127854;1294;108686;-83
2024/03/26 06:45:49;;;;;;;;;;;;;;;4.71;77.78;99507.46;127821;1284;107413;-83
2024/03/26 06:48:53;;;;;;;;;;;;;;;4.81;77.90;99500.92;127914;1284;107788;-82
2024/03/26 06:51:57;;;;;;;;;;;;;;;4.92;77.83;99500.81;127934;1286;106771;-82
2024/03/26 06:55:01;;;;;;;;;;;;;;;5.01;77.68;99500.16;127885;1288;106587;-82
2024/03/26 06:58:05;;;;;;;;;;;;;;;5.09;77.68;99498.27;127953;1284;108732;-82
2024/03/26 07:01:12;;;;;;;;;;;;;;;5.17;77.75;99500.36;127873;1283;107175;-83
2024/03/26 07:04:16;;;;;;;;;;;;;;;5.30;77.85;99496.09;127830;1284;107319;-83
2024/03/26 07:07:20;;;;;;;;;;;;;;;5.41;77.95;99491.34;127811;1294;106060;-83
2024/03/26 07:10:24;;;;;;;;;;;;;;;5.50;77.91;99491.23;127832;1285;106789;-83
2024/03/26 07:13:27;;;;;;;;;;;;;;;5.54;77.92;99495.55;127799;1289;108598;-83
2024/03/26 07:16:31;;;;;;;;;;;;;;;5.62;78.04;99495.85;127929;1294;108866;-82
2024/03/26 07:19:35;;;;;;;;;;;;;;;5.77;78.14;99496.59;127910;1288;107792;-82
2024/03/26 07:22:39;;;;;;;;;;;;;;;5.98;77.88;99498.69;127917;1287;108175;-82
2024/03/26 07:25:46;;;;;;;;;;;;;;;6.14;77.97;99497.04;127877;1287;107672;-83
2024/03/26 07:28:51;;;;;;;;;;;;;;;6.33;78.04;99497.79;127846;1285;108058;-83
2024/03/26 07:31:55;;;;;;;;;;;;;;;6.55;77.69;99509.45;127884;1287;107571;-82
2024/03/26 07:34:59;;;;;;;;;;;;;;;6.70;77.63;99508.41;127984;1283;106916;-82
2024/03/26 07:38:02;;;;;;;;;;;;;;;6.79;77.18;99507.04;127943;1295;106623;-82
2024/03/26 07:41:07;;;;;;;;;;;;;;;6.84;77.59;99504.91;127946;1280;106382;-82
2024/03/26 07:44:11;;;;;;;;;;;;;;;6.94;77.50;99502.00;127964;1286;106928;-82
2024/03/26 07:47:15;;;;;;;;;;;;;;;7.02;77.34;99502.83;127895;1285;107587;-82
2024/03/26 07:50:19;;;;;;;;;;;;;;;7.12;77.05;99501.23;127749;1284;108944;-82
2024/03/26 07:53:22;;;;;;;;;;;;;;;7.17;76.97;99504.27;127822;1295;106564;-82
2024/03/26 07:56:26;;;;;;;;;;;;;;;7.20;76.96;99496.72;127792;1286;106427;-82
2024/03/26 07:59:30;;;;;;;;;;;;;;;7.20;76.71;99493.81;127843;1280;108976;-85
2024/03/26 08:02:34;;;;;;;;;;;;;;;7.22;76.78;99494.73;127932;1285;108677;-83
2024/03/26 08:05:38;;;;;;;;;;;;;;;7.19;76.72;99491.61;127944;1286;108451;-82
2024/03/26 08:08:41;;;;;;;;;;;;;;;7.20;76.93;99486.58;127938;1284;107738;-83
2024/03/26 08:11:45;;;;;;;;;;;;;;;7.31;77.01;99486.44;127972;1286;108680;-83
2024/03/26 08:14:49;;;;;;;;;;;;;;;7.44;77.41;99483.69;127948;1295;106618;-83
2024/03/26 08:17:53;;;;;;;;;;;;;;;7.52;76.85;99488.58;127877;1293;108942;-83
2024/03/26 08:20:57;;;;;;;;;;;;;;;7.55;77.12;99484.75;127759;1286;108848;-84
2024/03/26 08:24:01;;;;;;;;;;;;;;;7.63;77.27;99485.17;127875;1286;106916;-83
2024/03/26 08:27:05;;;;;;;;;;;;;;;7.70;77.01;99484.21;127890;1285;108877;-83
2024/03/26 08:30:10;;;;;;;;;;;;;;;7.77;77.05;99484.99;127883;1280;106844;-84
2024/03/26 08:33:14;;;;;;;;;;;;;;;7.81;77.09;99485.48;127808;1292;108567;-83
2024/03/26 08:36:18;;;;;;;;;;;;;;;7.87;76.83;99479.06;127811;1280;108914;-83
2024/03/26 08:39:22;;;;;;;;;;;;;;;7.91;76.47;99476.93;127936;1287;107815;-83
2024/03/26 08:42:26;;;;;;;;;;;;;;;8.00;76.69;99477.75;127835;1293;108139;-83
2024/03/26 08:45:29;;;;;;;;;;;;;;;8.13;76.78;99471.67;127838;1284;107814;-84
2024/03/26 08:48:33;;;;;;;;;;;;;;;8.26;76.66;99465.90;127810;1294;108627;-84
2024/03/26 08:51:38;;;;;;;;;;;;;;;8.41;76.46;99459.95;127822;1293;107081;-83
2024/03/26 08:54:42;;;;;;;;;;;;;;;8.55;76.60;99456.36;127815;1284;107469;-84
2024/03/26 08:57:46;;;;;;;;;;;;;;;8.62;76.33;99454.06;127821;1295;108614;-84
2024/03/26 09:00:50;;;;;;;;;;;;;;;8.75;76.68;99452.92;127826;1280;105675;-83
2024/03/26 09:03:53;;;;;;;;;;;;;;;8.81;76.24;99459.01;127863;1283;108794;-84
2024/03/26 09:06:57;;;;;;;;;;;;;;;8.83;76.14;99460.92;127885;1284;107367;-84
2024/03/26 09:10:06;;;;;;;;;;;;;;;8.90;75.83;99463.98;127818;1288;107851;-84
2024/03/26 09:13:10;;;;;;;;;;;;;;;8.91;75.97;99463.09;127893;1294;108879;-83
2024/03/26 09:16:13;;;;;;;;;;;;;;;8.97;76.11;99464.59;127852;1287;105905;-83
2024/03/26 09:19:17;;;;;;;;;;;;;;;9.09;75.79;99465.52;127837;1284;108460;-84
2024/03/26 09:22:21;;;;;;;;;;;;;;;9.13;75.73;99457.27;127932;1280;107958;-84
2024/03/26 09:25:25;;;;;;;;;;;;;;;9.21;75.88;99453.04;127911;1294;107792;-84
2024/03/26 09:28:29;;;;;;;;;;;;;;;9.34;75.83;99451.95;127816;1283;107911;-83
2024/03/26 09:31:33;;;;;;;;;;;;;;;9.35;75.29;99451.16;127795;1284;108173;-84
2024/03/26 09:34:37;;;;;;;;;;;;;;;9.28;75.09;99446.63;127836;1280;108784;-84
2024/03/26 09:37:42;;;;;;;;;;;;;;;9.21;75.52;99441.98;127813;1284;108518;-84
2024/03/26 09:40:47;;;;;;;;;;;;;;;9.21;75.62;99431.25;127930;1286;107815;-84
2024/03/26 09:43:52;;;;;;;;;;;;;;;9.10;75.16;99436.12;127963;1280;106820;-84
2024/03/26 09:46:57;;;;;;;;;;;;;;;8.99;75.08;99433.90;127979;1281;106573;-84
2024/03/26 09:50:02;;;;;;;;;;;;;;;8.86;75.10;99433.64;127845;1280;106772;-84
2024/03/26 09:53:09;;;;;;;;;;;;;;;8.77;75.17;99426.27;127911;1294;109860;-84
2024/03/26 09:56:14;;;;;;;;;;;;;;;8.69;75.43;99420.79;127883;1284;107397;-84
2024/03/26 09:59:17;;;;;;;;;;;;;;;8.61;75.21;99416.27;127829;1283;106812;-85
2024/03/26 10:02:22;;;;;;;;;;;;;;;8.57;75.66;99410.08;127879;1280;108816;-85
2024/03/26 10:05:28;;;;;;;;;;;;;;;8.56;75.41;99409.30;127839;1286;106871;-84
2024/03/26 10:08:32;;;;;;;;;;;;;;;8.58;75.71;99402.17;127811;1280;107165;-85
2024/03/26 10:11:36;;;;;;;;;;;;;;;8.63;75.33;99395.60;127877;1284;107330;-84
2024/03/26 10:14:41;;;;;;;;;;;;;;;8.73;75.33;99386.79;127826;1282;107726;-85
2024/03/26 10:17:46;;;;;;;;;;;;;;;8.83;74.73;99390.66;127827;1284;106737;-84
2024/03/26 10:20:50;;;;;;;;;;;;;;;8.91;74.46;99387.19;127920;1283;107582;-84
2024/03/26 10:23:55;;;;;;;;;;;;;;;8.97;74.43;99386.30;127977;1280;106417;-84
2024/03/26 10:26:59;;;;;;;;;;;;;;;9.05;74.57;99383.55;127960;1284;108693;-84
2024/03/26 10:30:07;;;;;;;;;;;;;;;9.11;74.28;99377.77;127974;1284;108604;-84
2024/03/26 10:33:12;;;;;;;;;;;;;;;9.13;73.86;99373.48;127858;1294;107603;-84
2024/03/26 10:36:17;;;;;;;;;;;;;;;9.12;73.60;99371.67;127854;1294;108869;-84
2024/03/26 10:39:24;;;;;;;;;;;;;;;9.12;74.33;99369.39;127893;1284;108922;-84
2024/03/26 10:42:28;;;;;;;;;;;;;;;9.16;74.43;99372.48;127892;1286;107746;-84
2024/03/26 10:45:33;;;;;;;;;;;;;;;9.23;73.92;99374.39;127850;1284;107254;-84
2024/03/26 10:48:38;;;;;;;;;;;;;;;9.27;73.06;99379.46;127910;1283;107862;-85
2024/03/26 10:51:43;;;;;;;;;;;;;;;9.29;73.23;99371.42;127825;1284;107817;-84
2024/03/26 10:54:52;;;;;;;;;;;;;;;9.33;73.40;99363.33;127902;1294;108691;-84
2024/03/26 10:57:57;;;;;;;;;;;;;;;9.40;73.02;99359.73;127931;1282;107799;-84
2024/03/26 11:01:02;;;;;;;;;;;;;;;9.45;72.67;99356.17;127907;1283;108701;-84
2024/03/26 11:04:06;;;;;;;;;;;;;;;9.47;72.42;99360.45;127955;1282;106570;-84
2024/03/26 11:07:10;;;;;;;;;;;;;;;9.49;72.55;99357.23;127967;1280;107661;-85
2024/03/26 11:10:16;;;;;;;;;;;;;;;9.53;72.31;99360.48;127905;1283;107665;-85
2024/03/26 11:13:25;;;;;;;;;;;;;;;9.57;72.40;99359.36;127857;1281;107543;-85
2024/03/26 11:16:35;;;;;;;;;;;;;;;9.63;72.27;99355.81;127973;1282;108855;-85
2024/03/26 11:19:39;;;;;;;;;;;;;;;9.70;71.60;99349.41;127882;1283;107876;-85
2024/03/26 11:22:43;;;;;;;;;;;;;;;9.76;71.99;99340.90;127901;1281;107797;-85
2024/03/26 11:25:53;;;;;;;;;;;;;;;9.82;71.68;99337.14;127884;1280;107944;-85
2024/03/26 11:28:59;;;;;;;;;;;;;;;9.91;71.78;99338.52;127845;1284;106730;-85
2024/03/26 11:32:03;;;;;;;;;;;;;;;9.99;70.22;99335.87;127899;1283;107843;-84
2024/03/26 11:35:17;;;;;;;;;;;;;;;10.04;70.51;99332.49;127966;1284;106592;-84
2024/03/26 11:38:21;;;;;;;;;;;;;;;10.09;70.62;99329.77;127948;1284;107658;-84
2024/03/26 11:41:26;;;;;;;;;;;;;;;10.15;70.67;99321.42;127987;1286;108695;-84
2024/03/26 11:44:30;;;;;;;;;;;;;;;10.22;71.01;99319.70;127898;1281;106633;-84
2024/03/26 11:47:34;;;;;;;;;;;;;;;10.33;70.63;99310.57;127907;1284;107930;-85
2024/03/26 11:50:37;;;;;;;;;;;;;;;10.38;69.71;99305.41;127930;1284;107859;-84
2024/03/26 11:53:41;;;;;;;;;;;;;;;10.40;69.29;99302.27;127997;1284;106619;-84
2024/03/26 11:56:45;;;;;;;;;;;;;;;10.45;69.34;99292.97;127971;1280;106604;-84
2024/03/26 11:59:49;;;;;;;;;;;;;;;10.54;69.54;99279.75;127870;1288;108925;-85
2024/03/26 12:02:53;;;;;;;;;;;;;;;10.62;68.88;99286.23;127920;1295;106577;-85
2024/03/26 12:05:56;;;;;;;;;;;;;;;10.67;69.19;99281.06;127959;1294;108875;-85
2024/03/26 12:09:00;;;;;;;;;;;;;;;10.77;68.57;99280.66;127935;1282;108859;-85
2024/03/26 12:12:05;;;;;;;;;;;;;;;10.86;67.99;99272.80;127907;1284;107906;-85
2024/03/26 12:15:12;;;;;;;;;;;;;;;10.94;68.00;99266.74;127935;1280;108665;-85
2024/03/26 12:18:19;;;;;;;;;;;;;;;11.01;68.15;99260.86;127894;1284;108750;-85
2024/03/26 12:21:24;;;;;;;;;;;;;;;11.09;67.77;99261.10;127965;1284;108879;-85
2024/03/26 12:24:28;;;;;;;;;;;;;;;11.15;67.99;99257.48;127957;1283;108242;-85
2024/03/26 12:27:32;;;;;;;;;;;;;;;11.15;66.28;99252.63;127973;1284;108780;-84
2024/03/26 12:30:36;;;;;;;;;;;;;;;11.18;67.23;99249.27;127971;1280;107631;-84
2024/03/26 12:33:40;;;;;;;;;;;;;;;11.25;66.14;99249.41;127914;1287;108564;-85
2024/03/26 12:36:45;;;;;;;;;;;;;;;11.27;65.96;99244.35;127876;1280;107770;-84
2024/03/26 12:39:49;;;;;;;;;;;;;;;11.30;65.56;99244.48;127928;1284;108320;-85
2024/03/26 12:42:52;;;;;;;;;;;;;;;11.33;64.80;99241.81;128013;1283;108940;-84
2024/03/26 12:45:59;;;;;;;;;;;;;;;11.37;64.95;99237.92;127971;1283;107585;-86
2024/03/26 12:49:04;;;;;;;;;;;;;;;11.41;64.79;99228.37;128137;1280;107373;-85
2024/03/26 12:52:09;;;;;;;;;;;;;;;11.47;65.50;99221.05;128234;1282;106393;-84
2024/03/26 12:55:12;;;;;;;;;;;;;;;11.55;65.64;99218.20;128193;1283;108277;-84
2024/03/26 12:58:16;;;;;;;;;;;;;;;11.58;65.00;99212.11;128087;1283;107860;-84
2024/03/26 13:01:20;;;;;;;;;;;;;;;11.64;64.59;99208.60;128065;1283;107707;-84
2024/03/26 13:04:24;;;;;;;;;;;;;;;11.65;64.79;99210.27;127904;1282;108000;-86
2024/03/26 13:07:28;;;;;;;;;;;;;;;11.68;64.72;99203.58;127944;1283;108675;-85
2024/03/26 13:10:31;;;;;;;;;;;;;;;11.72;64.60;99190.88;127962;1280;106182;-85
2024/03/26 13:13:35;;;;;;;;;;;;;;;11.75;63.96;99185.29;127923;1280;106716;-84
2024/03/26 13:16:39;;;;;;;;;;;;;;;11.78;63.84;99185.14;128048;1284;108781;-84
2024/03/26 13:19:43;;;;;;;;;;;;;;;11.83;64.05;99180.65;127861;1287;108452;-85
2024/03/26 13:22:47;;;;;;;;;;;;;;;11.89;62.87;99171.48;128015;1281;107176;-85
2024/03/26 13:25:51;;;;;;;;;;;;;;;11.95;63.19;99172.96;128155;1284;108097;-85
2024/03/26 13:28:54;;;;;;;;;;;;;;;11.97;62.47;99169.20;127995;1284;108899;-85
2024/03/26 13:31:58;;;;;;;;;;;;;;;12.02;61.87;99167.07;127993;1280;108872;-85
2024/03/26 13:35:03;;;;;;;;;;;;;;;12.05;61.69;99157.48;127899;1284;108885;-84
2024/03/26 13:38:07;;;;;;;;;;;;;;;12.06;60.78;99145.33;127870;1280;109036;-84
2024/03/26 13:41:11;;;;;;;;;;;;;;;12.07;61.19;99138.79;127876;1281;106685;-85
2024/03/26 13:44:15;;;;;;;;;;;;;;;12.09;61.05;99138.89;128094;1284;107989;-84
2024/03/26 13:47:18;;;;;;;;;;;;;;;12.13;60.44;99133.98;127951;1280;107824;-84
2024/03/26 13:50:22;;;;;;;;;;;;;;;12.14;60.27;99127.59;128004;1283;106890;-84
2024/03/26 13:53:26;;;;;;;;;;;;;;;12.14;59.96;99127.80;128087;1283;107871;-86
2024/03/26 13:56:30;;;;;;;;;;;;;;;12.15;59.76;99128.74;128059;1283;108738;-85
2024/03/26 13:59:34;;;;;;;;;;;;;;;12.14;59.01;99119.54;128071;1281;107801;-84
2024/03/26 14:02:38;;;;;;;;;;;;;;;12.14;58.14;99108.52;127900;1280;107504;-84
2024/03/26 14:05:41;;;;;;;;;;;;;;;12.16;57.76;99102.39;127979;1284;107860;-84
2024/03/26 14:08:45;;;;;;;;;;;;;;;12.20;58.67;99098.68;128030;1281;106390;-84
2024/03/26 14:11:49;;;;;;;;;;;;;;;12.24;58.73;99094.73;128157;1283;107102;-84
2024/03/26 14:14:53;;;;;;;;;;;;;;;12.26;57.88;99090.38;127874;1283;106615;-84
2024/03/26 14:17:56;;;;;;;;;;;;;;;12.25;57.66;99076.87;128027;1284;108797;-85
2024/03/26 14:21:04;;;;;;;;;;;;;;;12.26;58.25;99076.77;127877;1280;108078;-84
2024/03/26 14:24:08;;;;;;;;;;;;;;;12.28;57.61;99078.81;127943;1283;106952;-86
2024/03/26 14:27:12;;;;;;;;;;;;;;;12.28;56.96;99075.82;128313;1280;107507;-86
2024/03/26 14:30:16;;;;;;;;;;;;;;;12.26;56.84;99074.08;128122;1281;108452;-84
2024/03/26 14:33:22;;;;;;;;;;;;;;;12.24;56.71;99070.20;128036;1284;271974;-86
2024/03/26 14:36:35;;;;;;;;;;;;;;;12.25;56.71;99073.16;128278;1283;108104;-87
2024/03/26 14:39:45;;;;;;;;;;;;;;;12.25;56.05;99070.61;128125;1280;106754;-87
2024/03/26 14:42:51;;;;;;;;;;;;;;;12.24;56.47;99064.85;128549;1279;107525;-86
2024/03/26 14:45:56;;;;;;;;;;;;;;;12.24;56.88;99060.75;128127;1283;107126;-85
2024/03/26 14:49:04;;;;;;;;;;;;;;;12.24;56.77;99058.27;128030;1280;107145;-84
2024/03/26 14:52:08;;;;;;;;;;;;;;;12.24;56.83;99055.80;128053;1280;107743;-84
2024/03/26 14:55:12;;;;;;;;;;;;;;;12.24;56.39;99049.71;128058;1280;108720;-87
2024/03/26 14:58:16;;;;;;;;;;;;;;;12.24;57.01;99049.00;128284;1283;108606;-83
2024/03/26 15:01:20;;;;;;;;;;;;;;;12.24;56.17;99050.09;127936;1283;108822;-83
2024/03/26 15:04:24;;;;;;;;;;;;;;;12.23;56.37;99043.32;127959;1280;108742;-84
2024/03/26 15:07:27;;;;;;;;;;;;;;;12.20;55.89;99037.58;128008;1285;108770;-84
2024/03/26 15:10:31;;;;;;;;;;;;;;;12.17;56.51;99041.76;128107;1283;106967;-86
2024/03/26 15:13:35;;;;;;;;;;;;;;;12.14;55.63;99041.64;127998;1284;106958;-86
2024/03/26 15:16:39;;;;;;;;;;;;;;;12.10;56.39;99043.55;127991;1280;106853;-86
2024/03/26 15:19:43;;;;;;;;;;;;;;;12.08;55.94;99045.88;128015;1283;107147;-85
2024/03/26 15:22:47;;;;;;;;;;;;;;;12.04;55.26;99046.36;128633;1280;107588;-85
2024/03/26 15:25:54;;;;;;;;;;;;;;;12.00;56.10;99041.29;128743;1280;106647;-86
2024/03/26 15:32:19;;;;;;;;;;;;;;;11.92;56.08;99041.28;128360;1283;107795;-85
2024/03/26 15:35:23;;;;;;;;;;;;;;;11.88;55.72;99041.91;127996;1284;107697;-85
2024/03/26 15:38:27;;;;;;;;;;;;;;;11.84;55.89;99041.21;128071;1281;107677;-85
2024/03/26 15:41:31;;;;;;;;;;;;;;;11.80;55.72;99037.20;128139;1281;107573;-85
2024/03/26 15:44:36;;;;;;;;;;;;;;;11.75;55.85;99034.73;127910;1286;109054;-85